Terminal Aerodrome Forecast
Issued by NWS North Platte, NE

Home | Current Version | Previous Version | Text Only | Print | Product List | Glossary On
Versions: 1 2 3 4 5 6 7 8 9 10 11 12 13 14 15 16 17 18 19 20
000
FTUS43 KLBF 200114 AAB
TAFLBF
TAF AMD
KLBF 200114Z 2001/2024 31015G24KT P6SM FEW250
     FM200400 32018G27KT P6SM SCT250
     FM200600 32011KT P6SM FEW250
     FM200900 31005KT P6SM FEW250
     FM201700 29007KT P6SM SKC=

USA.gov is the U.S. government's official web portal to all federal, state and local government web resources and services.